sensor_id;sensor_type;location;lat;lon;timestamp;P1;durP1;ratioP1;P2;durP2;ratioP2
17414;SDS011;8825;48.086;16.426;2023-02-14T00:04:05;6.37;;;5.77;;
17414;SDS011;8825;48.086;16.426;2023-02-14T00:06:33;8.03;;;6.50;;
17414;SDS011;8825;48.086;16.426;2023-02-14T00:09:09;7.47;;;6.65;;
17414;SDS011;8825;48.086;16.426;2023-02-14T00:11:33;6.90;;;6.20;;
17414;SDS011;8825;48.086;16.426;2023-02-14T00:14:01;8.50;;;6.80;;
17414;SDS011;8825;48.086;16.426;2023-02-14T00:16:46;7.37;;;6.67;;
17414;SDS011;8825;48.086;16.426;2023-02-14T00:19:15;7.83;;;6.70;;
17414;SDS011;8825;48.086;16.426;2023-02-14T00:21:43;8.03;;;6.77;;
17414;SDS011;8825;48.086;16.426;2023-02-14T00:24:33;7.27;;;6.57;;
17414;SDS011;8825;48.086;16.426;2023-02-14T00:26:45;8.27;;;7.47;;
17414;SDS011;8825;48.086;16.426;2023-02-14T00:29:15;8.18;;;7.37;;
17414;SDS011;8825;48.086;16.426;2023-02-14T00:31:45;9.57;;;7.90;;
17414;SDS011;8825;48.086;16.426;2023-02-14T00:34:33;9.13;;;7.97;;
17414;SDS011;8825;48.086;16.426;2023-02-14T00:37:01;8.93;;;7.37;;
17414;SDS011;8825;48.086;16.426;2023-02-14T00:39:29;11.80;;;9.20;;
17414;SDS011;8825;48.086;16.426;2023-02-14T00:41:57;9.10;;;8.17;;
17414;SDS011;8825;48.086;16.426;2023-02-14T00:44:24;9.70;;;8.53;;
17414;SDS011;8825;48.086;16.426;2023-02-14T00:46:52;9.07;;;8.17;;
17414;SDS011;8825;48.086;16.426;2023-02-14T00:49:19;9.00;;;8.13;;
17414;SDS011;8825;48.086;16.426;2023-02-14T00:51:47;8.77;;;7.90;;
17414;SDS011;8825;48.086;16.426;2023-02-14T00:54:14;8.03;;;7.23;;
17414;SDS011;8825;48.086;16.426;2023-02-14T00:56:42;9.00;;;8.10;;
17414;SDS011;8825;48.086;16.426;2023-02-14T00:59:09;9.33;;;8.43;;
17414;SDS011;8825;48.086;16.426;2023-02-14T01:01:37;8.43;;;7.53;;
17414;SDS011;8825;48.086;16.426;2023-02-14T01:04:05;9.47;;;8.50;;
17414;SDS011;8825;48.086;16.426;2023-02-14T01:06:32;9.70;;;8.60;;
17414;SDS011;8825;48.086;16.426;2023-02-14T01:09:00;9.27;;;8.13;;
17414;SDS011;8825;48.086;16.426;2023-02-14T01:11:28;8.60;;;7.70;;
17414;SDS011;8825;48.086;16.426;2023-02-14T01:13:56;9.23;;;8.33;;
17414;SDS011;8825;48.086;16.426;2023-02-14T01:16:24;9.13;;;7.23;;
17414;SDS011;8825;48.086;16.426;2023-02-14T01:18:53;9.17;;;8.17;;
17414;SDS011;8825;48.086;16.426;2023-02-14T01:21:41;8.90;;;8.00;;
17414;SDS011;8825;48.086;16.426;2023-02-14T01:24:09;8.63;;;7.63;;
17414;SDS011;8825;48.086;16.426;2023-02-14T01:29:25;9.07;;;8.17;;
17414;SDS011;8825;48.086;16.426;2023-02-14T01:31:52;8.57;;;7.67;;
17414;SDS011;8825;48.086;16.426;2023-02-14T01:34:20;8.63;;;7.73;;
17414;SDS011;8825;48.086;16.426;2023-02-14T01:36:47;8.60;;;7.70;;
17414;SDS011;8825;48.086;16.426;2023-02-14T01:39:15;9.47;;;8.20;;
17414;SDS011;8825;48.086;16.426;2023-02-14T01:41:44;10.03;;;8.10;;
17414;SDS011;8825;48.086;16.426;2023-02-14T01:46:46;8.77;;;7.87;;
17414;SDS011;8825;48.086;16.426;2023-02-14T01:49:14;9.33;;;8.33;;
17414;SDS011;8825;48.086;16.426;2023-02-14T01:51:49;8.67;;;7.60;;
17414;SDS011;8825;48.086;16.426;2023-02-14T01:54:17;10.20;;;9.10;;
17414;SDS011;8825;48.086;16.426;2023-02-14T01:56:49;9.00;;;8.10;;
17414;SDS011;8825;48.086;16.426;2023-02-14T01:59:19;8.83;;;7.73;;
17414;SDS011;8825;48.086;16.426;2023-02-14T02:01:49;9.37;;;8.30;;
17414;SDS011;8825;48.086;16.426;2023-02-14T02:04:21;9.23;;;7.60;;
17414;SDS011;8825;48.086;16.426;2023-02-14T02:06:53;8.93;;;8.03;;
17414;SDS011;8825;48.086;16.426;2023-02-14T02:12:22;10.20;;;8.93;;
17414;SDS011;8825;48.086;16.426;2023-02-14T02:14:51;10.40;;;9.13;;
17414;SDS011;8825;48.086;16.426;2023-02-14T02:23:05;9.67;;;8.67;;
17414;SDS011;8825;48.086;16.426;2023-02-14T02:25:59;9.70;;;8.40;;
17414;SDS011;8825;48.086;16.426;2023-02-14T02:28:35;9.40;;;8.50;;
17414;SDS011;8825;48.086;16.426;2023-02-14T02:34:15;10.43;;;8.70;;
17414;SDS011;8825;48.086;16.426;2023-02-14T02:37:02;10.77;;;8.53;;
17414;SDS011;8825;48.086;16.426;2023-02-14T02:45:10;9.73;;;8.33;;
17414;SDS011;8825;48.086;16.426;2023-02-14T02:47:43;11.40;;;8.53;;
17414;SDS011;8825;48.086;16.426;2023-02-14T02:50:23;10.43;;;8.73;;
17414;SDS011;8825;48.086;16.426;2023-02-14T03:02:08;10.80;;;8.80;;
17414;SDS011;8825;48.086;16.426;2023-02-14T03:04:40;10.27;;;9.27;;
17414;SDS011;8825;48.086;16.426;2023-02-14T03:07:37;10.20;;;8.80;;
17414;SDS011;8825;48.086;16.426;2023-02-14T03:10:02;9.93;;;8.77;;
17414;SDS011;8825;48.086;16.426;2023-02-14T03:12:41;9.33;;;8.40;;
17414;SDS011;8825;48.086;16.426;2023-02-14T03:20:59;8.83;;;7.60;;
17414;SDS011;8825;48.086;16.426;2023-02-14T03:23:28;10.17;;;8.53;;
17414;SDS011;8825;48.086;16.426;2023-02-14T03:28:41;10.27;;;8.53;;
17414;SDS011;8825;48.086;16.426;2023-02-14T03:31:25;10.93;;;8.90;;
17414;SDS011;8825;48.086;16.426;2023-02-14T03:34:11;10.67;;;9.30;;
17414;SDS011;8825;48.086;16.426;2023-02-14T03:36:49;10.53;;;8.60;;
17414;SDS011;8825;48.086;16.426;2023-02-14T03:41:58;11.23;;;9.40;;
17414;SDS011;8825;48.086;16.426;2023-02-14T03:44:28;10.60;;;9.03;;
17414;SDS011;8825;48.086;16.426;2023-02-14T03:47:00;10.60;;;8.83;;
17414;SDS011;8825;48.086;16.426;2023-02-14T03:49:33;10.87;;;9.47;;
17414;SDS011;8825;48.086;16.426;2023-02-14T03:52:03;10.80;;;9.13;;
17414;SDS011;8825;48.086;16.426;2023-02-14T03:54:33;9.63;;;8.57;;
17414;SDS011;8825;48.086;16.426;2023-02-14T03:57:13;11.27;;;9.87;;
17414;SDS011;8825;48.086;16.426;2023-02-14T03:59:44;14.20;;;10.17;;
17414;SDS011;8825;48.086;16.426;2023-02-14T04:04:58;11.10;;;9.80;;
17414;SDS011;8825;48.086;16.426;2023-02-14T04:07:28;12.37;;;10.10;;
17414;SDS011;8825;48.086;16.426;2023-02-14T04:09:55;11.30;;;10.03;;
17414;SDS011;8825;48.086;16.426;2023-02-14T04:12:23;10.93;;;9.00;;
17414;SDS011;8825;48.086;16.426;2023-02-14T04:14:50;10.93;;;9.73;;
17414;SDS011;8825;48.086;16.426;2023-02-14T04:17:18;11.83;;;9.30;;
17414;SDS011;8825;48.086;16.426;2023-02-14T04:20:04;11.43;;;10.23;;
17414;SDS011;8825;48.086;16.426;2023-02-14T04:22:32;11.90;;;10.37;;
17414;SDS011;8825;48.086;16.426;2023-02-14T04:24:59;12.13;;;10.67;;
17414;SDS011;8825;48.086;16.426;2023-02-14T04:27:27;12.23;;;10.63;;
17414;SDS011;8825;48.086;16.426;2023-02-14T04:29:55;13.93;;;10.67;;
17414;SDS011;8825;48.086;16.426;2023-02-14T04:32:23;14.80;;;11.03;;
17414;SDS011;8825;48.086;16.426;2023-02-14T04:34:50;12.70;;;10.87;;
17414;SDS011;8825;48.086;16.426;2023-02-14T04:37:18;13.87;;;10.87;;
17414;SDS011;8825;48.086;16.426;2023-02-14T04:39:46;13.50;;;10.83;;
17414;SDS011;8825;48.086;16.426;2023-02-14T04:42:14;12.20;;;10.40;;
17414;SDS011;8825;48.086;16.426;2023-02-14T04:44:42;14.53;;;11.57;;
17414;SDS011;8825;48.086;16.426;2023-02-14T04:47:09;13.67;;;11.43;;
17414;SDS011;8825;48.086;16.426;2023-02-14T04:49:37;15.60;;;12.20;;
17414;SDS011;8825;48.086;16.426;2023-02-14T04:52:04;13.33;;;11.13;;
17414;SDS011;8825;48.086;16.426;2023-02-14T04:54:32;13.97;;;11.93;;
17414;SDS011;8825;48.086;16.426;2023-02-14T04:57:00;15.90;;;11.77;;
17414;SDS011;8825;48.086;16.426;2023-02-14T04:59:27;13.80;;;11.50;;
17414;SDS011;8825;48.086;16.426;2023-02-14T05:01:55;15.23;;;11.90;;
17414;SDS011;8825;48.086;16.426;2023-02-14T05:04:22;17.27;;;13.40;;
17414;SDS011;8825;48.086;16.426;2023-02-14T05:06:50;16.23;;;12.97;;
17414;SDS011;8825;48.086;16.426;2023-02-14T05:09:18;16.07;;;13.13;;
17414;SDS011;8825;48.086;16.426;2023-02-14T05:11:45;16.53;;;13.63;;
17414;SDS011;8825;48.086;16.426;2023-02-14T05:14:13;17.87;;;13.27;;
17414;SDS011;8825;48.086;16.426;2023-02-14T05:16:40;17.67;;;14.00;;
17414;SDS011;8825;48.086;16.426;2023-02-14T05:19:08;16.67;;;13.90;;
17414;SDS011;8825;48.086;16.426;2023-02-14T05:21:35;19.97;;;15.00;;
17414;SDS011;8825;48.086;16.426;2023-02-14T05:24:03;16.57;;;13.90;;
17414;SDS011;8825;48.086;16.426;2023-02-14T05:26:31;19.43;;;15.13;;
17414;SDS011;8825;48.086;16.426;2023-02-14T05:28:58;20.10;;;15.40;;
17414;SDS011;8825;48.086;16.426;2023-02-14T05:31:26;16.77;;;13.43;;
17414;SDS011;8825;48.086;16.426;2023-02-14T05:33:54;18.10;;;14.40;;
17414;SDS011;8825;48.086;16.426;2023-02-14T05:36:21;16.27;;;14.17;;
17414;SDS011;8825;48.086;16.426;2023-02-14T05:38:49;14.93;;;12.73;;
17414;SDS011;8825;48.086;16.426;2023-02-14T05:41:16;16.10;;;12.90;;
17414;SDS011;8825;48.086;16.426;2023-02-14T05:43:44;13.73;;;11.80;;
17414;SDS011;8825;48.086;16.426;2023-02-14T05:46:11;14.53;;;12.00;;
17414;SDS011;8825;48.086;16.426;2023-02-14T05:48:39;17.27;;;12.37;;
17414;SDS011;8825;48.086;16.426;2023-02-14T05:51:07;14.23;;;11.93;;
17414;SDS011;8825;48.086;16.426;2023-02-14T05:56:24;15.03;;;11.77;;
17414;SDS011;8825;48.086;16.426;2023-02-14T05:58:52;14.20;;;12.50;;
17414;SDS011;8825;48.086;16.426;2023-02-14T06:01:20;13.70;;;11.43;;
17414;SDS011;8825;48.086;16.426;2023-02-14T06:03:47;17.40;;;11.50;;
17414;SDS011;8825;48.086;16.426;2023-02-14T06:06:15;14.70;;;11.60;;
17414;SDS011;8825;48.086;16.426;2023-02-14T06:08:42;15.23;;;11.50;;
17414;SDS011;8825;48.086;16.426;2023-02-14T06:11:10;14.63;;;11.87;;
17414;SDS011;8825;48.086;16.426;2023-02-14T06:13:37;13.57;;;11.30;;
17414;SDS011;8825;48.086;16.426;2023-02-14T06:16:06;14.83;;;11.97;;
17414;SDS011;8825;48.086;16.426;2023-02-14T06:18:33;13.47;;;10.63;;
17414;SDS011;8825;48.086;16.426;2023-02-14T06:21:01;12.33;;;10.63;;
17414;SDS011;8825;48.086;16.426;2023-02-14T06:23:29;14.03;;;11.27;;
17414;SDS011;8825;48.086;16.426;2023-02-14T06:25:56;13.70;;;11.20;;
17414;SDS011;8825;48.086;16.426;2023-02-14T06:28:24;11.87;;;10.20;;
17414;SDS011;8825;48.086;16.426;2023-02-14T06:30:51;12.33;;;10.83;;
17414;SDS011;8825;48.086;16.426;2023-02-14T06:33:19;14.70;;;11.07;;
17414;SDS011;8825;48.086;16.426;2023-02-14T06:35:46;13.47;;;11.00;;
17414;SDS011;8825;48.086;16.426;2023-02-14T06:38:14;15.60;;;11.23;;
17414;SDS011;8825;48.086;16.426;2023-02-14T06:40:41;17.30;;;11.50;;
17414;SDS011;8825;48.086;16.426;2023-02-14T06:43:10;14.23;;;11.27;;
17414;SDS011;8825;48.086;16.426;2023-02-14T06:45:37;14.90;;;11.97;;
17414;SDS011;8825;48.086;16.426;2023-02-14T06:48:08;13.17;;;10.93;;
17414;SDS011;8825;48.086;16.426;2023-02-14T06:50:35;14.17;;;10.97;;
17414;SDS011;8825;48.086;16.426;2023-02-14T06:53:03;16.10;;;11.47;;
17414;SDS011;8825;48.086;16.426;2023-02-14T06:55:31;14.90;;;11.87;;
17414;SDS011;8825;48.086;16.426;2023-02-14T06:57:58;14.10;;;11.73;;
17414;SDS011;8825;48.086;16.426;2023-02-14T07:00:26;12.97;;;11.37;;
17414;SDS011;8825;48.086;16.426;2023-02-14T07:02:53;12.87;;;11.17;;
17414;SDS011;8825;48.086;16.426;2023-02-14T07:05:21;13.93;;;11.47;;
17414;SDS011;8825;48.086;16.426;2023-02-14T07:07:48;13.07;;;10.70;;
17414;SDS011;8825;48.086;16.426;2023-02-14T07:10:16;15.63;;;11.73;;
17414;SDS011;8825;48.086;16.426;2023-02-14T07:12:44;14.43;;;11.40;;
17414;SDS011;8825;48.086;16.426;2023-02-14T07:15:12;15.40;;;12.00;;
17414;SDS011;8825;48.086;16.426;2023-02-14T07:17:40;15.10;;;12.43;;
17414;SDS011;8825;48.086;16.426;2023-02-14T07:20:08;12.77;;;10.87;;
17414;SDS011;8825;48.086;16.426;2023-02-14T07:22:37;14.50;;;12.10;;
17414;SDS011;8825;48.086;16.426;2023-02-14T07:25:05;13.87;;;12.30;;
17414;SDS011;8825;48.086;16.426;2023-02-14T07:27:33;15.03;;;12.80;;
17414;SDS011;8825;48.086;16.426;2023-02-14T07:30:01;16.57;;;13.00;;
17414;SDS011;8825;48.086;16.426;2023-02-14T07:32:29;14.90;;;12.27;;
17414;SDS011;8825;48.086;16.426;2023-02-14T07:34:56;14.97;;;12.03;;
17414;SDS011;8825;48.086;16.426;2023-02-14T07:37:24;13.70;;;11.83;;
17414;SDS011;8825;48.086;16.426;2023-02-14T07:39:51;14.60;;;12.00;;
17414;SDS011;8825;48.086;16.426;2023-02-14T07:42:19;15.90;;;11.40;;
17414;SDS011;8825;48.086;16.426;2023-02-14T07:44:47;12.40;;;11.10;;
17414;SDS011;8825;48.086;16.426;2023-02-14T07:47:14;14.50;;;12.17;;
17414;SDS011;8825;48.086;16.426;2023-02-14T07:49:42;13.33;;;11.97;;
17414;SDS011;8825;48.086;16.426;2023-02-14T07:52:09;12.83;;;11.30;;
17414;SDS011;8825;48.086;16.426;2023-02-14T07:54:37;12.07;;;10.83;;
17414;SDS011;8825;48.086;16.426;2023-02-14T07:57:04;13.00;;;10.93;;
17414;SDS011;8825;48.086;16.426;2023-02-14T07:59:32;13.40;;;11.53;;
17414;SDS011;8825;48.086;16.426;2023-02-14T08:01:59;13.83;;;11.30;;
17414;SDS011;8825;48.086;16.426;2023-02-14T08:04:27;13.00;;;10.70;;
17414;SDS011;8825;48.086;16.426;2023-02-14T08:06:54;13.63;;;11.50;;
17414;SDS011;8825;48.086;16.426;2023-02-14T08:09:22;12.23;;;10.53;;
17414;SDS011;8825;48.086;16.426;2023-02-14T08:11:54;12.10;;;10.80;;
17414;SDS011;8825;48.086;16.426;2023-02-14T08:14:42;13.87;;;12.00;;
17414;SDS011;8825;48.086;16.426;2023-02-14T08:17:10;13.87;;;12.20;;
17414;SDS011;8825;48.086;16.426;2023-02-14T08:19:38;17.47;;;13.37;;
17414;SDS011;8825;48.086;16.426;2023-02-14T08:22:06;15.77;;;13.60;;
17414;SDS011;8825;48.086;16.426;2023-02-14T08:24:34;15.37;;;13.00;;
17414;SDS011;8825;48.086;16.426;2023-02-14T08:27:01;17.90;;;13.33;;
17414;SDS011;8825;48.086;16.426;2023-02-14T08:29:29;17.50;;;13.67;;
17414;SDS011;8825;48.086;16.426;2023-02-14T08:31:57;16.67;;;13.27;;
17414;SDS011;8825;48.086;16.426;2023-02-14T08:34:25;15.60;;;13.53;;
17414;SDS011;8825;48.086;16.426;2023-02-14T08:36:53;15.03;;;12.67;;
17414;SDS011;8825;48.086;16.426;2023-02-14T08:39:20;18.37;;;13.60;;
17414;SDS011;8825;48.086;16.426;2023-02-14T08:41:48;15.80;;;12.73;;
17414;SDS011;8825;48.086;16.426;2023-02-14T08:44:15;16.37;;;13.13;;
17414;SDS011;8825;48.086;16.426;2023-02-14T08:46:43;17.50;;;13.60;;
17414;SDS011;8825;48.086;16.426;2023-02-14T08:49:10;15.63;;;12.33;;
17414;SDS011;8825;48.086;16.426;2023-02-14T08:51:38;17.90;;;13.20;;
17414;SDS011;8825;48.086;16.426;2023-02-14T08:54:05;16.93;;;13.43;;
17414;SDS011;8825;48.086;16.426;2023-02-14T08:56:33;16.57;;;12.87;;
17414;SDS011;8825;48.086;16.426;2023-02-14T08:59:01;16.47;;;13.10;;
17414;SDS011;8825;48.086;16.426;2023-02-14T09:01:29;17.33;;;13.03;;
17414;SDS011;8825;48.086;16.426;2023-02-14T09:03:56;14.67;;;12.27;;
17414;SDS011;8825;48.086;16.426;2023-02-14T09:06:24;19.37;;;14.30;;
17414;SDS011;8825;48.086;16.426;2023-02-14T09:08:52;15.20;;;12.87;;
17414;SDS011;8825;48.086;16.426;2023-02-14T09:11:21;15.97;;;13.63;;
17414;SDS011;8825;48.086;16.426;2023-02-14T09:13:50;15.60;;;13.27;;
17414;SDS011;8825;48.086;16.426;2023-02-14T09:18:58;17.50;;;14.13;;
17414;SDS011;8825;48.086;16.426;2023-02-14T09:21:26;17.87;;;13.13;;
17414;SDS011;8825;48.086;16.426;2023-02-14T09:23:55;14.70;;;13.00;;
17414;SDS011;8825;48.086;16.426;2023-02-14T09:26:22;16.07;;;13.30;;
17414;SDS011;8825;48.086;16.426;2023-02-14T09:28:50;14.27;;;12.23;;
17414;SDS011;8825;48.086;16.426;2023-02-14T09:31:19;13.93;;;11.80;;
17414;SDS011;8825;48.086;16.426;2023-02-14T09:33:49;15.40;;;13.53;;
17414;SDS011;8825;48.086;16.426;2023-02-14T09:36:17;17.00;;;13.77;;
17414;SDS011;8825;48.086;16.426;2023-02-14T09:38:45;14.57;;;11.93;;
17414;SDS011;8825;48.086;16.426;2023-02-14T09:44:06;15.10;;;12.87;;
17414;SDS011;8825;48.086;16.426;2023-02-14T09:46:39;15.47;;;13.63;;
17414;SDS011;8825;48.086;16.426;2023-02-14T09:49:12;17.03;;;13.63;;
17414;SDS011;8825;48.086;16.426;2023-02-14T09:51:46;17.40;;;14.50;;
17414;SDS011;8825;48.086;16.426;2023-02-14T09:54:19;16.43;;;13.03;;
17414;SDS011;8825;48.086;16.426;2023-02-14T09:59:43;19.20;;;14.67;;
17414;SDS011;8825;48.086;16.426;2023-02-14T10:05:31;19.47;;;15.40;;
17414;SDS011;8825;48.086;16.426;2023-02-14T10:11:02;20.03;;;16.23;;
17414;SDS011;8825;48.086;16.426;2023-02-14T10:13:37;19.77;;;15.93;;
17414;SDS011;8825;48.086;16.426;2023-02-14T10:19:03;19.90;;;16.23;;
17414;SDS011;8825;48.086;16.426;2023-02-14T10:21:40;25.10;;;17.87;;
17414;SDS011;8825;48.086;16.426;2023-02-14T10:26:45;19.77;;;16.10;;
17414;SDS011;8825;48.086;16.426;2023-02-14T10:29:16;18.97;;;15.03;;
17414;SDS011;8825;48.086;16.426;2023-02-14T10:31:56;17.93;;;15.37;;
17414;SDS011;8825;48.086;16.426;2023-02-14T10:34:41;19.40;;;15.53;;
17414;SDS011;8825;48.086;16.426;2023-02-14T10:37:19;19.23;;;16.17;;
17414;SDS011;8825;48.086;16.426;2023-02-14T10:39:59;19.50;;;16.13;;
17414;SDS011;8825;48.086;16.426;2023-02-14T10:50:58;18.83;;;15.37;;
17414;SDS011;8825;48.086;16.426;2023-02-14T10:59:01;17.97;;;15.07;;
17414;SDS011;8825;48.086;16.426;2023-02-14T11:01:30;16.53;;;14.13;;
17414;SDS011;8825;48.086;16.426;2023-02-14T11:04:00;22.17;;;15.87;;
17414;SDS011;8825;48.086;16.426;2023-02-14T11:06:31;19.73;;;15.03;;
17414;SDS011;8825;48.086;16.426;2023-02-14T11:08:59;19.83;;;15.23;;
17414;SDS011;8825;48.086;16.426;2023-02-14T11:11:34;16.70;;;14.87;;
17414;SDS011;8825;48.086;16.426;2023-02-14T11:14:20;17.97;;;14.93;;
17414;SDS011;8825;48.086;16.426;2023-02-14T11:16:49;18.43;;;14.57;;
17414;SDS011;8825;48.086;16.426;2023-02-14T11:19:20;18.83;;;14.50;;
17414;SDS011;8825;48.086;16.426;2023-02-14T11:22:00;18.47;;;14.60;;
17414;SDS011;8825;48.086;16.426;2023-02-14T11:24:27;17.40;;;14.60;;
17414;SDS011;8825;48.086;16.426;2023-02-14T11:27:03;17.97;;;15.07;;
17414;SDS011;8825;48.086;16.426;2023-02-14T11:29:42;17.40;;;14.33;;
17414;SDS011;8825;48.086;16.426;2023-02-14T11:32:12;16.63;;;14.67;;
17414;SDS011;8825;48.086;16.426;2023-02-14T11:34:53;17.53;;;13.63;;
17414;SDS011;8825;48.086;16.426;2023-02-14T11:42:50;15.23;;;13.63;;
17414;SDS011;8825;48.086;16.426;2023-02-14T11:45:26;16.40;;;14.10;;
17414;SDS011;8825;48.086;16.426;2023-02-14T11:53:35;17.07;;;15.27;;
17414;SDS011;8825;48.086;16.426;2023-02-14T11:55:59;18.03;;;15.70;;
17414;SDS011;8825;48.086;16.426;2023-02-14T11:58:28;18.93;;;15.43;;
17414;SDS011;8825;48.086;16.426;2023-02-14T12:01:01;16.87;;;14.10;;
17414;SDS011;8825;48.086;16.426;2023-02-14T12:03:35;18.37;;;14.90;;
17414;SDS011;8825;48.086;16.426;2023-02-14T12:05:59;16.83;;;14.93;;
17414;SDS011;8825;48.086;16.426;2023-02-14T12:08:28;16.20;;;14.17;;
17414;SDS011;8825;48.086;16.426;2023-02-14T12:11:04;19.17;;;14.83;;
17414;SDS011;8825;48.086;16.426;2023-02-14T12:13:33;17.80;;;14.57;;
17414;SDS011;8825;48.086;16.426;2023-02-14T12:16:01;15.77;;;14.07;;
17414;SDS011;8825;48.086;16.426;2023-02-14T12:18:33;17.20;;;14.27;;
17414;SDS011;8825;48.086;16.426;2023-02-14T12:21:09;16.47;;;14.63;;
17414;SDS011;8825;48.086;16.426;2023-02-14T12:23:58;16.40;;;14.63;;
17414;SDS011;8825;48.086;16.426;2023-02-14T12:26:45;16.40;;;14.70;;
17414;SDS011;8825;48.086;16.426;2023-02-14T12:32:06;17.43;;;14.63;;
17414;SDS011;8825;48.086;16.426;2023-02-14T12:34:30;17.63;;;15.57;;
17414;SDS011;8825;48.086;16.426;2023-02-14T12:37:01;19.50;;;17.43;;
17414;SDS011;8825;48.086;16.426;2023-02-14T12:45:18;18.83;;;16.23;;
17414;SDS011;8825;48.086;16.426;2023-02-14T12:56:43;19.27;;;16.83;;
17414;SDS011;8825;48.086;16.426;2023-02-14T13:08:03;19.23;;;16.37;;
17414;SDS011;8825;48.086;16.426;2023-02-14T13:13:54;19.70;;;16.43;;
17414;SDS011;8825;48.086;16.426;2023-02-14T13:19:18;18.87;;;16.20;;
17414;SDS011;8825;48.086;16.426;2023-02-14T13:21:49;18.20;;;16.20;;
17414;SDS011;8825;48.086;16.426;2023-02-14T13:24:18;19.10;;;16.70;;
17414;SDS011;8825;48.086;16.426;2023-02-14T13:26:52;17.97;;;14.87;;
17414;SDS011;8825;48.086;16.426;2023-02-14T13:29:23;17.67;;;15.77;;
17414;SDS011;8825;48.086;16.426;2023-02-14T13:31:55;17.13;;;15.27;;
17414;SDS011;8825;48.086;16.426;2023-02-14T13:34:44;16.50;;;14.80;;
17414;SDS011;8825;48.086;16.426;2023-02-14T13:37:15;18.60;;;16.33;;
17414;SDS011;8825;48.086;16.426;2023-02-14T13:39:56;17.70;;;14.27;;
17414;SDS011;8825;48.086;16.426;2023-02-14T13:48:13;19.33;;;16.63;;
17414;SDS011;8825;48.086;16.426;2023-02-14T13:50:50;18.97;;;16.30;;
17414;SDS011;8825;48.086;16.426;2023-02-14T13:56:30;19.27;;;15.43;;
17414;SDS011;8825;48.086;16.426;2023-02-14T13:59:05;18.43;;;16.37;;
17414;SDS011;8825;48.086;16.426;2023-02-14T14:04:05;20.53;;;16.83;;
17414;SDS011;8825;48.086;16.426;2023-02-14T14:15:17;20.67;;;17.53;;
17414;SDS011;8825;48.086;16.426;2023-02-14T14:17:46;25.30;;;19.83;;
17414;SDS011;8825;48.086;16.426;2023-02-14T14:22:49;21.03;;;17.73;;
17414;SDS011;8825;48.086;16.426;2023-02-14T14:25:37;19.80;;;17.07;;
17414;SDS011;8825;48.086;16.426;2023-02-14T14:27:57;19.30;;;17.17;;
17414;SDS011;8825;48.086;16.426;2023-02-14T14:30:30;18.00;;;16.03;;
17414;SDS011;8825;48.086;16.426;2023-02-14T14:33:13;18.07;;;16.17;;
17414;SDS011;8825;48.086;16.426;2023-02-14T14:36:02;16.93;;;15.20;;
17414;SDS011;8825;48.086;16.426;2023-02-14T14:38:45;18.07;;;15.17;;
17414;SDS011;8825;48.086;16.426;2023-02-14T14:41:15;17.80;;;15.97;;
17414;SDS011;8825;48.086;16.426;2023-02-14T14:43:43;19.00;;;17.03;;
17414;SDS011;8825;48.086;16.426;2023-02-14T14:46:13;18.83;;;15.83;;
17414;SDS011;8825;48.086;16.426;2023-02-14T14:48:44;18.73;;;15.47;;
17414;SDS011;8825;48.086;16.426;2023-02-14T14:51:23;18.20;;;16.27;;
17414;SDS011;8825;48.086;16.426;2023-02-14T14:53:55;19.80;;;16.37;;
17414;SDS011;8825;48.086;16.426;2023-02-14T14:56:29;18.10;;;16.20;;
17414;SDS011;8825;48.086;16.426;2023-02-14T14:59:45;17.97;;;16.17;;
17414;SDS011;8825;48.086;16.426;2023-02-14T15:01:52;17.63;;;15.80;;
17414;SDS011;8825;48.086;16.426;2023-02-14T15:04:27;19.20;;;17.20;;
17414;SDS011;8825;48.086;16.426;2023-02-14T15:06:56;17.77;;;15.87;;
17414;SDS011;8825;48.086;16.426;2023-02-14T15:09:30;19.57;;;17.07;;
17414;SDS011;8825;48.086;16.426;2023-02-14T15:11:58;18.67;;;16.63;;
17414;SDS011;8825;48.086;16.426;2023-02-14T15:14:47;18.27;;;16.37;;
17414;SDS011;8825;48.086;16.426;2023-02-14T15:17:24;18.87;;;16.73;;
17414;SDS011;8825;48.086;16.426;2023-02-14T15:19:53;19.13;;;17.03;;
17414;SDS011;8825;48.086;16.426;2023-02-14T15:22:33;19.13;;;16.37;;
17414;SDS011;8825;48.086;16.426;2023-02-14T15:25:15;19.23;;;17.10;;
17414;SDS011;8825;48.086;16.426;2023-02-14T15:27:39;19.90;;;16.83;;
17414;SDS011;8825;48.086;16.426;2023-02-14T15:30:20;21.23;;;18.07;;
17414;SDS011;8825;48.086;16.426;2023-02-14T15:32:49;20.07;;;17.93;;
17414;SDS011;8825;48.086;16.426;2023-02-14T15:35:23;21.07;;;18.73;;
17414;SDS011;8825;48.086;16.426;2023-02-14T15:37:51;20.70;;;17.27;;
17414;SDS011;8825;48.086;16.426;2023-02-14T15:40:23;21.00;;;18.10;;
17414;SDS011;8825;48.086;16.426;2023-02-14T15:42:53;20.13;;;17.43;;
17414;SDS011;8825;48.086;16.426;2023-02-14T15:48:02;19.90;;;16.77;;
17414;SDS011;8825;48.086;16.426;2023-02-14T15:50:31;19.30;;;17.27;;
17414;SDS011;8825;48.086;16.426;2023-02-14T15:53:03;21.60;;;18.23;;
17414;SDS011;8825;48.086;16.426;2023-02-14T15:55:31;20.90;;;17.83;;
17414;SDS011;8825;48.086;16.426;2023-02-14T15:58:05;21.73;;;18.33;;
17414;SDS011;8825;48.086;16.426;2023-02-14T16:00:30;21.77;;;18.47;;
17414;SDS011;8825;48.086;16.426;2023-02-14T16:02:59;20.27;;;17.73;;
17414;SDS011;8825;48.086;16.426;2023-02-14T16:05:29;23.70;;;18.43;;
17414;SDS011;8825;48.086;16.426;2023-02-14T16:08:01;21.90;;;17.37;;
17414;SDS011;8825;48.086;16.426;2023-02-14T16:10:37;23.83;;;17.30;;
17414;SDS011;8825;48.086;16.426;2023-02-14T16:13:18;21.67;;;18.87;;
17414;SDS011;8825;48.086;16.426;2023-02-14T16:16:00;22.00;;;17.50;;
17414;SDS011;8825;48.086;16.426;2023-02-14T16:18:44;21.13;;;17.90;;
17414;SDS011;8825;48.086;16.426;2023-02-14T16:21:20;24.87;;;21.37;;
17414;SDS011;8825;48.086;16.426;2023-02-14T16:26:37;22.70;;;19.17;;
17414;SDS011;8825;48.086;16.426;2023-02-14T16:29:07;21.47;;;18.17;;
17414;SDS011;8825;48.086;16.426;2023-02-14T16:31:37;21.67;;;18.27;;
17414;SDS011;8825;48.086;16.426;2023-02-14T16:34:10;22.03;;;19.53;;
17414;SDS011;8825;48.086;16.426;2023-02-14T16:36:39;19.90;;;17.47;;
17414;SDS011;8825;48.086;16.426;2023-02-14T16:39:12;22.27;;;18.93;;
17414;SDS011;8825;48.086;16.426;2023-02-14T16:41:46;21.63;;;18.13;;
17414;SDS011;8825;48.086;16.426;2023-02-14T16:44:14;21.70;;;17.50;;
17414;SDS011;8825;48.086;16.426;2023-02-14T16:46:44;19.83;;;17.73;;
17414;SDS011;8825;48.086;16.426;2023-02-14T16:49:12;20.70;;;18.47;;
17414;SDS011;8825;48.086;16.426;2023-02-14T16:51:41;20.53;;;17.33;;
17414;SDS011;8825;48.086;16.426;2023-02-14T16:54:11;21.80;;;18.17;;
17414;SDS011;8825;48.086;16.426;2023-02-14T16:56:56;24.90;;;20.27;;
17414;SDS011;8825;48.086;16.426;2023-02-14T16:59:26;21.80;;;18.63;;
17414;SDS011;8825;48.086;16.426;2023-02-14T17:01:57;22.73;;;18.77;;
17414;SDS011;8825;48.086;16.426;2023-02-14T17:04:25;20.57;;;17.03;;
17414;SDS011;8825;48.086;16.426;2023-02-14T17:06:54;22.90;;;18.83;;
17414;SDS011;8825;48.086;16.426;2023-02-14T17:09:23;23.83;;;19.50;;
17414;SDS011;8825;48.086;16.426;2023-02-14T17:11:55;21.17;;;18.87;;
17414;SDS011;8825;48.086;16.426;2023-02-14T17:14:26;23.27;;;19.57;;
17414;SDS011;8825;48.086;16.426;2023-02-14T17:17:13;25.10;;;20.70;;
17414;SDS011;8825;48.086;16.426;2023-02-14T17:19:41;24.03;;;19.70;;
17414;SDS011;8825;48.086;16.426;2023-02-14T17:22:10;25.53;;;20.03;;
17414;SDS011;8825;48.086;16.426;2023-02-14T17:24:39;24.70;;;20.63;;